createdAt,value
2022-08-20T00:00:44.016Z,34.17
2022-08-20T00:03:27.831Z,52.03
2022-08-20T00:06:11.431Z,26.83
2022-08-20T00:08:38.910Z,39.72
2022-08-20T00:11:08.364Z,33.85
2022-08-20T00:13:50.039Z,31.30
2022-08-20T00:16:20.682Z,32.58
2022-08-20T00:18:47.986Z,32.83
2022-08-20T00:21:19.135Z,29.50
2022-08-20T00:23:48.881Z,30.10
2022-08-20T00:26:17.185Z,25.65
2022-08-20T00:28:44.826Z,25.90
2022-08-20T00:31:14.451Z,32.20
2022-08-20T00:33:41.871Z,29.95
2022-08-20T00:36:12.456Z,27.83
2022-08-20T00:38:42.368Z,32.63
2022-08-20T00:41:14.877Z,30.02
2022-08-20T00:44:04.240Z,34.58
2022-08-20T00:46:32.363Z,30.58
2022-08-20T00:49:03.238Z,31.75
2022-08-20T00:51:41.577Z,31.08
2022-08-20T00:54:29.631Z,31.70
2022-08-20T00:57:01.728Z,32.08
2022-08-20T00:59:32.003Z,32.33
2022-08-20T01:02:01.444Z,39.08
2022-08-20T01:04:31.933Z,37.70
2022-08-20T01:06:59.537Z,42.58
2022-08-20T01:09:50.201Z,38.30
2022-08-20T01:12:16.464Z,28.13
2022-08-20T01:14:45.595Z,24.27
2022-08-20T01:17:17.991Z,27.20
2022-08-20T01:19:50.953Z,23.38
2022-08-20T01:22:44.711Z,23.73
2022-08-20T01:25:23.920Z,24.60
2022-08-20T01:27:55.198Z,25.92
2022-08-20T01:30:27.684Z,26.55
2022-08-20T01:32:55.310Z,24.30
2022-08-20T01:35:25.235Z,28.67
2022-08-20T01:37:52.803Z,28.50
2022-08-20T01:40:36.170Z,25.60
2022-08-20T01:43:06.402Z,24.05
2022-08-20T01:45:34.248Z,27.08
2022-08-20T01:48:01.485Z,25.27
2022-08-20T01:50:32.966Z,26.30
2022-08-20T01:53:24.671Z,28.67
2022-08-20T01:55:51.839Z,31.88
2022-08-20T01:58:19.134Z,27.15
2022-08-20T02:00:46.737Z,25.73
2022-08-20T02:03:14.085Z,30.33
2022-08-20T02:05:41.322Z,39.92
2022-08-20T02:08:08.963Z,29.40
2022-08-20T02:10:36.283Z,25.95
2022-08-20T02:13:05.638Z,27.55
2022-08-20T02:15:37.467Z,35.22
2022-08-20T02:18:11.711Z,31.50
2022-08-20T02:20:40.040Z,31.90
2022-08-20T02:23:08.497Z,34.40
2022-08-20T02:25:37.869Z,34.78
2022-08-20T02:28:09.399Z,31.48
2022-08-20T02:30:40.333Z,28.00
2022-08-20T02:33:11.138Z,25.80
2022-08-20T02:35:40.828Z,29.17
2022-08-20T02:38:08.534Z,31.80
2022-08-20T02:40:36.330Z,24.88
2022-08-20T02:43:05.362Z,34.63
2022-08-20T02:45:44.156Z,31.30
2022-08-20T02:48:23.750Z,36.65
2022-08-20T02:50:54.425Z,34.67
2022-08-20T02:53:22.658Z,35.85
2022-08-20T02:55:50.138Z,32.53
2022-08-20T02:58:18.227Z,43.55
2022-08-20T03:00:46.073Z,40.42
2022-08-20T03:03:15.094Z,43.40
2022-08-20T03:05:44.450Z,40.22
2022-08-20T03:08:14.068Z,37.40
2022-08-20T03:10:44.238Z,36.92
2022-08-20T03:13:12.772Z,40.28
2022-08-20T03:15:43.204Z,38.72
2022-08-20T03:18:11.456Z,37.67
2022-08-20T03:20:38.847Z,35.55
2022-08-20T03:23:06.928Z,34.58
2022-08-20T03:25:34.667Z,34.17
2022-08-20T03:28:01.987Z,31.63
2022-08-20T03:30:30.632Z,31.48
2022-08-20T03:32:58.658Z,33.58
2022-08-20T03:35:28.377Z,30.92
2022-08-20T03:37:56.344Z,29.90
2022-08-20T03:40:31.795Z,32.00
2022-08-20T03:42:59.653Z,32.33
2022-08-20T03:45:28.229Z,29.42
2022-08-20T03:47:56.393Z,32.28
2022-08-20T03:50:26.304Z,35.45
2022-08-20T03:52:54.911Z,35.25
2022-08-20T03:55:23.583Z,32.10
2022-08-20T03:57:58.884Z,30.80
2022-08-20T04:02:57.446Z,27.70
2022-08-20T04:05:28.446Z,27.52
2022-08-20T04:07:58.420Z,27.10
2022-08-20T04:10:32.089Z,27.17
2022-08-20T04:12:59.764Z,23.85
2022-08-20T04:15:29.054Z,27.15
2022-08-20T04:17:56.661Z,22.75
2022-08-20T04:20:26.219Z,24.42
2022-08-20T04:22:58.966Z,28.05
2022-08-20T04:25:29.806Z,35.40
2022-08-20T04:28:03.099Z,27.27
2022-08-20T04:30:31.183Z,27.85
2022-08-20T04:32:59.828Z,30.92
2022-08-20T04:35:27.260Z,25.45
2022-08-20T04:38:09.115Z,26.83
2022-08-20T04:40:58.169Z,28.52
2022-08-20T04:43:31.569Z,31.73
2022-08-20T04:46:02.157Z,29.00
2022-08-20T04:48:30.520Z,43.20
2022-08-20T04:51:02.143Z,33.03
2022-08-20T04:53:31.568Z,30.95
2022-08-20T04:56:01.297Z,30.38
2022-08-20T04:58:34.891Z,29.23
2022-08-20T05:01:06.436Z,29.15
2022-08-20T05:03:34.505Z,30.58
2022-08-20T05:06:02.247Z,31.77
2022-08-20T05:08:29.993Z,26.85
2022-08-20T05:11:32.759Z,29.27
2022-08-20T05:13:45.471Z,29.90
2022-08-20T05:16:14.216Z,26.38
2022-08-20T05:18:41.528Z,28.92
2022-08-20T05:21:08.915Z,29.00
2022-08-20T05:23:39.207Z,29.02
2022-08-20T05:26:07.996Z,29.20
2022-08-20T05:28:51.350Z,29.92
2022-08-20T05:31:31.399Z,35.97
2022-08-20T05:34:02.298Z,35.92
2022-08-20T05:36:30.282Z,33.90
2022-08-20T05:38:57.928Z,31.05
2022-08-20T05:41:29.685Z,37.97
2022-08-20T05:44:03.730Z,28.17
2022-08-20T05:46:32.240Z,37.30
2022-08-20T05:49:08.509Z,38.47
2022-08-20T05:51:37.275Z,32.17
2022-08-20T05:54:06.537Z,30.90
2022-08-20T05:56:34.380Z,29.35
2022-08-20T05:59:07.357Z,26.27
2022-08-20T06:01:39.456Z,34.55
2022-08-20T06:05:09.192Z,38.13
2022-08-20T06:07:36.578Z,27.95
2022-08-20T06:10:04.570Z,33.05
2022-08-20T06:12:35.091Z,26.58
2022-08-20T06:15:02.575Z,29.58
2022-08-20T06:17:34.776Z,25.40
2022-08-20T06:20:12.833Z,27.83
2022-08-20T06:22:47.053Z,35.00
2022-08-20T06:25:14.522Z,32.08
2022-08-20T06:27:45.675Z,33.55
2022-08-20T06:30:15.542Z,31.00
2022-08-20T06:32:46.353Z,32.20
2022-08-20T06:35:19.448Z,31.63
2022-08-20T06:37:47.795Z,27.00
2022-08-20T06:40:28.867Z,27.48
2022-08-20T06:42:57.995Z,27.70
2022-08-20T06:45:29.153Z,28.67
2022-08-20T06:47:59.500Z,25.80
2022-08-20T06:50:47.321Z,31.23
2022-08-20T06:53:19.299Z,23.05
2022-08-20T06:55:53.999Z,28.42
2022-08-20T06:58:37.536Z,26.52
2022-08-20T07:01:21.424Z,27.60
2022-08-20T07:03:54.200Z,25.52
2022-08-20T07:06:25.999Z,26.47
2022-08-20T07:08:54.724Z,23.52
2022-08-20T07:11:27.391Z,27.23
2022-08-20T07:13:57.054Z,24.15
2022-08-20T07:16:24.801Z,23.15
2022-08-20T07:19:01.011Z,26.50
2022-08-20T07:21:28.537Z,22.25
2022-08-20T07:23:55.865Z,24.77
2022-08-20T07:26:23.498Z,23.00
2022-08-20T07:28:50.961Z,21.55
2022-08-20T07:31:36.584Z,23.17
2022-08-20T07:36:32.340Z,20.38
2022-08-20T07:39:00.063Z,25.05
2022-08-20T07:41:34.050Z,21.45
2022-08-20T07:44:01.405Z,19.95
2022-08-20T07:46:31.295Z,22.77
2022-08-20T07:48:59.170Z,19.85
2022-08-20T07:51:26.706Z,24.08
2022-08-20T07:54:03.258Z,26.92
2022-08-20T07:56:30.539Z,25.27
2022-08-20T07:59:06.302Z,17.70
2022-08-20T08:01:33.707Z,21.13
2022-08-20T08:04:01.359Z,18.42
2022-08-20T08:06:31.579Z,18.92
2022-08-20T08:09:13.383Z,20.65
2022-08-20T08:11:47.495Z,20.42
2022-08-20T08:14:23.731Z,18.83
2022-08-20T08:16:53.565Z,20.92
2022-08-20T08:19:21.534Z,16.58
2022-08-20T08:21:49.839Z,17.52
2022-08-20T08:24:21.690Z,15.05
2022-08-20T08:26:50.469Z,17.58
2022-08-20T08:29:17.912Z,18.02
2022-08-20T08:31:45.637Z,13.50
2022-08-20T08:34:13.678Z,14.65
2022-08-20T08:37:33.109Z,15.90
2022-08-20T08:44:58.453Z,16.40
2022-08-20T08:47:35.024Z,16.88
2022-08-20T08:50:21.850Z,12.55
2022-08-20T08:53:02.934Z,16.77
2022-08-20T09:09:45.009Z,10.50
2022-08-20T09:20:16.272Z,9.55
2022-08-20T09:22:43.756Z,11.75
2022-08-20T09:25:23.837Z,7.05
2022-08-20T09:27:51.118Z,10.27
2022-08-20T09:30:19.065Z,12.27
2022-08-20T09:32:47.728Z,7.30
2022-08-20T09:35:18.265Z,8.32
2022-08-20T09:37:50.886Z,9.82
2022-08-20T09:40:51.087Z,9.30
2022-08-20T09:46:18.623Z,7.65
2022-08-20T09:48:51.815Z,7.25
2022-08-20T09:51:31.674Z,9.43
2022-08-20T09:54:00.454Z,9.35
2022-08-20T09:56:40.679Z,11.27
2022-08-20T09:59:18.720Z,7.90
2022-08-20T10:01:49.516Z,8.63
2022-08-20T10:04:16.930Z,12.70
2022-08-20T10:06:47.015Z,11.02
2022-08-20T10:09:14.817Z,8.68
2022-08-20T10:11:48.430Z,6.50
2022-08-20T10:14:15.738Z,5.18
2022-08-20T10:17:11.954Z,5.50
2022-08-20T10:27:30.125Z,8.68
2022-08-20T10:30:07.636Z,5.72
2022-08-20T10:32:37.572Z,3.42
2022-08-20T10:39:06.597Z,2.53
2022-08-20T10:51:12.609Z,2.45
2022-08-20T10:57:59.627Z,3.92
2022-08-20T11:05:00.985Z,5.60
2022-08-20T11:28:59.043Z,4.88
2022-08-20T11:54:52.938Z,10.90
2022-08-20T12:00:12.200Z,3.67
2022-08-20T12:03:00.197Z,2.47
2022-08-20T12:05:43.234Z,5.15
2022-08-20T12:15:00.968Z,4.10
2022-08-20T12:18:30.073Z,5.38
2022-08-20T12:21:36.918Z,5.22
2022-08-20T12:24:04.901Z,4.10
2022-08-20T12:30:09.124Z,2.70
2022-08-20T12:32:36.809Z,3.40
2022-08-20T12:42:10.158Z,8.03
2022-08-20T12:51:35.126Z,2.22
2022-08-20T12:54:50.801Z,10.52
2022-08-20T13:00:43.141Z,5.10
2022-08-20T13:03:20.970Z,6.85
2022-08-20T13:06:37.633Z,5.88
2022-08-20T13:09:19.747Z,4.80
2022-08-20T13:12:03.326Z,9.98
2022-08-20T13:14:38.183Z,8.10
2022-08-20T13:17:38.958Z,6.55
2022-08-20T13:23:15.577Z,2.80
2022-08-20T13:25:44.626Z,4.00
2022-08-20T13:28:12.080Z,5.78
2022-08-20T13:30:41.143Z,6.68
2022-08-20T13:33:13.424Z,6.15
2022-08-20T13:35:49.196Z,2.50
2022-08-20T13:38:16.882Z,3.28
2022-08-20T13:40:44.682Z,2.88
2022-08-20T13:43:16.466Z,4.80
2022-08-20T13:45:52.282Z,2.38
2022-08-20T13:48:30.380Z,7.07
2022-08-20T13:50:58.037Z,2.38
2022-08-20T13:53:42.372Z,5.68
2022-08-20T13:56:19.610Z,13.30
2022-08-20T14:02:31.451Z,6.35
2022-08-20T14:05:01.032Z,5.25
2022-08-20T14:07:46.341Z,4.40
2022-08-20T14:10:38.174Z,8.10
2022-08-20T14:13:15.162Z,8.60
2022-08-20T14:16:52.927Z,9.60
2022-08-20T14:22:23.592Z,12.07
2022-08-20T14:30:53.244Z,4.18
2022-08-20T14:33:37.251Z,4.70
2022-08-20T14:36:13.051Z,6.63
2022-08-20T14:38:45.323Z,4.35
2022-08-20T14:41:15.845Z,4.38
2022-08-20T14:43:47.640Z,8.20
2022-08-20T14:46:15.375Z,5.80
2022-08-20T14:48:45.534Z,4.70
2022-08-20T14:51:20.922Z,7.57
2022-08-20T14:53:48.135Z,7.50
2022-08-20T14:56:20.182Z,8.52
2022-08-20T14:59:12.318Z,5.35
2022-08-20T15:01:41.313Z,6.60
2022-08-20T15:04:08.596Z,5.57
2022-08-20T15:06:36.047Z,5.53
2022-08-20T15:09:09.051Z,6.88
2022-08-20T15:11:40.307Z,5.25
2022-08-20T15:14:21.805Z,3.00
2022-08-20T15:16:57.490Z,11.45
2022-08-20T15:19:29.328Z,4.55
2022-08-20T15:21:56.902Z,2.78
2022-08-20T15:24:24.243Z,2.47
2022-08-20T15:26:54.506Z,3.22
2022-08-20T15:29:23.409Z,3.70
2022-08-20T15:32:05.334Z,4.30
2022-08-20T15:34:45.860Z,8.15
2022-08-20T15:37:38.169Z,10.60
2022-08-20T15:40:18.312Z,7.68
2022-08-20T15:42:54.425Z,4.65
2022-08-20T15:45:32.164Z,8.25
2022-08-20T15:48:43.568Z,4.63
2022-08-20T15:51:44.398Z,6.10
2022-08-20T15:58:01.364Z,4.32
2022-08-20T16:04:01.425Z,4.55
2022-08-20T16:06:48.564Z,5.10
2022-08-20T16:09:21.947Z,6.72
2022-08-20T16:12:04.374Z,4.65
2022-08-20T16:14:50.567Z,4.40
2022-08-20T16:17:41.362Z,3.80
2022-08-20T16:20:23.060Z,4.50
2022-08-20T16:22:53.358Z,4.13
2022-08-20T16:25:28.286Z,3.28
2022-08-20T16:28:28.227Z,4.60
2022-08-20T16:31:07.827Z,3.28
2022-08-20T16:33:57.194Z,9.30
2022-08-20T16:36:35.783Z,5.88
2022-08-20T16:39:06.589Z,3.13
2022-08-20T16:41:49.917Z,5.60
2022-08-20T16:44:39.780Z,4.93
2022-08-20T16:47:16.069Z,4.57
2022-08-20T16:50:00.922Z,2.03
2022-08-20T16:52:28.257Z,3.25
2022-08-20T16:54:56.714Z,4.13
2022-08-20T16:57:26.561Z,4.97
2022-08-20T17:00:12.202Z,2.88
2022-08-20T17:02:59.246Z,4.93
2022-08-20T17:05:38.813Z,6.03
2022-08-20T17:08:08.631Z,3.60
2022-08-20T17:11:01.610Z,6.07
2022-08-20T17:13:34.696Z,2.30
2022-08-20T17:16:07.959Z,3.03
2022-08-20T17:18:38.649Z,3.22
2022-08-20T17:21:23.568Z,4.63
2022-08-20T17:24:04.126Z,3.35
2022-08-20T17:26:43.100Z,3.03
2022-08-20T17:29:18.558Z,2.60
2022-08-20T17:31:50.806Z,2.83
2022-08-20T17:34:21.688Z,4.63
2022-08-20T17:37:03.095Z,1.95
2022-08-20T17:39:31.939Z,2.15
2022-08-20T17:42:10.427Z,3.80
2022-08-20T17:44:45.846Z,5.15
2022-08-20T17:47:18.224Z,9.05
2022-08-20T17:50:02.803Z,3.40
2022-08-20T17:53:06.844Z,5.30
2022-08-20T17:55:36.186Z,1.20
2022-08-20T17:58:06.992Z,4.93
2022-08-20T18:00:34.395Z,2.53
2022-08-20T18:03:15.220Z,2.70
2022-08-20T18:05:44.039Z,6.18
2022-08-20T18:08:20.710Z,5.10
2022-08-20T18:11:09.160Z,3.65
2022-08-20T18:13:52.345Z,4.18
2022-08-20T18:16:54.298Z,5.38
2022-08-20T18:19:59.400Z,3.15
2022-08-20T18:22:33.312Z,6.97
2022-08-20T18:26:01.356Z,3.20
2022-08-20T18:28:41.459Z,3.47
2022-08-20T18:31:10.610Z,7.43
2022-08-20T18:33:42.498Z,2.70
2022-08-20T18:36:30.639Z,4.55
2022-08-20T18:39:05.309Z,5.43
2022-08-20T18:41:41.431Z,7.55
2022-08-20T18:44:12.660Z,4.22
2022-08-20T18:46:53.184Z,5.85
2022-08-20T18:49:36.420Z,18.42
2022-08-20T18:52:16.616Z,7.57
2022-08-20T18:54:52.034Z,2.78
2022-08-20T18:57:40.540Z,5.63
2022-08-20T19:00:14.664Z,3.15
2022-08-20T19:03:07.111Z,13.32
2022-08-20T19:05:54.779Z,5.82
2022-08-20T19:08:25.744Z,13.00
2022-08-20T19:11:14.219Z,6.05
2022-08-20T19:14:26.240Z,6.90
2022-08-20T19:17:08.786Z,6.28
2022-08-20T19:19:38.726Z,3.85
2022-08-20T19:22:06.357Z,3.22
2022-08-20T19:24:35.608Z,5.97
2022-08-20T19:27:07.805Z,6.47
2022-08-20T19:29:41.136Z,5.45
2022-08-20T19:32:16.502Z,8.02
2022-08-20T19:34:54.531Z,5.85
2022-08-20T19:37:34.994Z,5.50
2022-08-20T19:42:46.492Z,3.78
2022-08-20T19:45:31.054Z,1.95
2022-08-20T19:48:10.783Z,2.75
2022-08-20T19:51:22.932Z,4.07
2022-08-20T19:53:50.422Z,7.22
2022-08-20T19:56:23.220Z,9.05
2022-08-20T19:59:07.514Z,7.25
2022-08-20T20:01:36.029Z,6.38
2022-08-20T20:04:14.795Z,5.55
2022-08-20T20:06:45.493Z,3.97
2022-08-20T20:09:18.121Z,6.35
2022-08-20T20:11:48.975Z,4.38
2022-08-20T20:14:18.652Z,1.85
2022-08-20T20:16:49.188Z,4.50
2022-08-20T20:19:33.197Z,2.85
2022-08-20T20:22:20.385Z,3.00
2022-08-20T20:25:06.788Z,3.45
2022-08-20T20:27:36.746Z,6.85
2022-08-20T20:30:13.732Z,4.15
2022-08-20T20:32:47.047Z,3.83
2022-08-20T20:35:26.983Z,4.72
2022-08-20T20:38:06.435Z,8.18
2022-08-20T20:40:53.165Z,6.35
2022-08-20T20:43:32.444Z,2.72
2022-08-20T20:46:13.886Z,3.10
2022-08-20T20:48:54.048Z,7.38
2022-08-20T20:51:35.656Z,9.68
2022-08-20T20:54:25.116Z,4.70
2022-08-20T20:57:02.152Z,2.72
2022-08-20T20:59:32.697Z,5.53
2022-08-20T21:01:59.957Z,8.90
2022-08-20T21:04:27.907Z,3.90
2022-08-20T21:06:57.563Z,4.38
2022-08-20T21:09:30.887Z,5.97
2022-08-20T21:11:58.077Z,3.00
2022-08-20T21:14:25.297Z,3.85
2022-08-20T21:16:54.069Z,3.42
2022-08-20T21:19:21.924Z,7.22
2022-08-20T21:21:49.671Z,4.85
2022-08-20T21:24:17.212Z,2.15
2022-08-20T21:26:45.538Z,6.25
2022-08-20T21:29:17.427Z,10.32
2022-08-20T21:31:46.387Z,6.07
2022-08-20T21:34:15.646Z,7.55
2022-08-20T21:36:43.669Z,2.85
2022-08-20T21:39:11.649Z,3.88
2022-08-20T21:41:40.225Z,6.57
2022-08-20T21:44:25.125Z,3.85
2022-08-20T21:46:53.989Z,5.68
2022-08-20T21:49:22.652Z,5.82
2022-08-20T21:51:50.914Z,3.65
2022-08-20T21:54:19.533Z,3.03
2022-08-20T21:57:09.154Z,5.40
2022-08-20T21:59:38.558Z,3.17
2022-08-20T22:02:06.711Z,3.05
2022-08-20T22:04:35.643Z,4.40
2022-08-20T22:07:04.541Z,8.52
2022-08-20T22:09:33.464Z,3.72
2022-08-20T22:12:02.457Z,2.80
2022-08-20T22:14:31.049Z,5.10
2022-08-20T22:16:58.920Z,6.18
2022-08-20T22:19:26.104Z,9.32
2022-08-20T22:21:55.231Z,3.38
2022-08-20T22:24:29.902Z,4.50
2022-08-20T22:26:57.203Z,3.75
2022-08-20T22:29:25.073Z,4.72
2022-08-20T22:31:52.301Z,6.93
2022-08-20T22:34:20.780Z,5.90
2022-08-20T22:36:49.210Z,4.00
2022-08-20T22:39:16.512Z,7.07
2022-08-20T22:41:43.940Z,3.90
2022-08-20T22:44:11.185Z,3.10
2022-08-20T22:46:46.416Z,5.82
2022-08-20T22:49:18.779Z,1.92
2022-08-20T22:51:46.198Z,2.67
2022-08-20T22:54:19.125Z,4.88
2022-08-20T22:56:46.386Z,2.30
2022-08-20T22:59:14.413Z,4.45
2022-08-20T23:01:44.850Z,2.67
2022-08-20T23:04:27.637Z,4.85
2022-08-20T23:06:55.986Z,4.05
2022-08-20T23:09:24.007Z,7.18
2022-08-20T23:11:52.982Z,5.43
2022-08-20T23:14:20.685Z,5.88
2022-08-20T23:16:56.610Z,3.85
2022-08-20T23:19:25.177Z,3.88
2022-08-20T23:21:52.661Z,4.72
2022-08-20T23:24:20.139Z,3.45
2022-08-20T23:26:52.367Z,13.80
2022-08-20T23:29:22.279Z,2.15
2022-08-20T23:31:53.684Z,4.80
2022-08-20T23:34:20.892Z,6.57
2022-08-20T23:36:48.412Z,2.45
2022-08-20T23:39:15.724Z,3.17
2022-08-20T23:41:47.705Z,5.35
2022-08-20T23:44:26.442Z,5.90
2022-08-20T23:47:01.114Z,3.88
2022-08-20T23:49:29.474Z,2.08
2022-08-20T23:51:58.055Z,4.53
2022-08-20T23:54:25.331Z,5.28
2022-08-20T23:56:56.801Z,5.05
2022-08-20T23:59:24.665Z,3.10
